Time;durP1;ratioP1;P1;durP2;ratioP2;P2;SDS_P1;SDS_P2;PMS_P1;PMS_P2;Temp;Humidity;BMP_temperature;BMP_pressure;BME280_temperature;BME280_humidity;BME280_pressure;Samples;Min_cycle;Max_cycle;Signal;HPM_P1;HPM_P2
2023/08/20 00:04:07;;;;;;;8.90;6.07;;;;;;;23.69;59.62;100092.25;7764842;32;37605;-81
2023/08/20 00:08:23;;;;;;;10.45;6.30;;;;;;;23.90;58.64;100087.28;7765058;32;36846;-81
2023/08/20 00:12:40;;;;;;;10.85;6.60;;;;;;;23.76;58.94;100093.25;7764802;32;39385;-80
2023/08/20 00:16:56;;;;;;;8.93;6.65;;;;;;;23.59;59.49;100085.19;7764930;32;40762;-81
2023/08/20 00:21:14;;;;;;;9.63;6.28;;;;;;;23.56;59.63;100089.50;7764232;32;38782;-81
2023/08/20 00:25:31;;;;;;;9.20;6.65;;;;;;;23.43;60.01;100091.50;7764559;32;36000;-82
2023/08/20 00:29:47;;;;;;;11.68;7.22;;;;;;;23.35;60.18;100078.53;7764671;32;39232;-80
2023/08/20 00:34:04;;;;;;;12.13;6.85;;;;;;;23.44;59.80;100082.00;7764435;32;39973;-81
2023/08/20 00:38:23;;;;;;;11.10;6.37;;;;;;;23.42;59.80;100087.09;7764411;32;38504;-81
2023/08/20 00:42:39;;;;;;;10.18;7.07;;;;;;;23.25;60.48;100092.94;7764450;32;36999;-81
2023/08/20 00:46:55;;;;;;;14.40;7.70;;;;;;;23.21;60.66;100090.00;7764307;32;39879;-80
2023/08/20 00:51:12;;;;;;;13.57;6.93;;;;;;;23.18;61.14;100089.91;7763005;32;39979;-81
2023/08/20 00:55:28;;;;;;;10.20;6.60;;;;;;;23.19;61.22;100085.97;7762708;32;38488;-81
2023/08/20 00:59:47;;;;;;;12.70;7.30;;;;;;;23.00;61.76;100083.78;7763990;32;37082;-81
2023/08/20 01:04:04;;;;;;;11.10;6.90;;;;;;;23.11;61.34;100079.41;7763703;32;39204;-80
2023/08/20 01:08:40;;;;;;;10.57;6.78;;;;;;;23.27;60.83;100078.66;7763740;32;40530;-82
2023/08/20 01:12:57;;;;;;;9.38;6.78;;;;;;;23.39;60.10;100085.00;7763551;32;39533;-80
2023/08/20 01:17:14;;;;;;;9.95;6.37;;;;;;;23.37;60.08;100086.50;7762081;32;37634;-81
2023/08/20 01:21:39;;;;;;;8.52;6.10;;;;;;;23.51;59.58;100089.75;7763505;32;39854;-80
2023/08/20 01:26:05;;;;;;;10.23;6.30;;;;;;;23.35;60.03;100086.88;7762320;32;40098;-80
2023/08/20 01:30:22;;;;;;;8.70;6.22;;;;;;;23.33;59.88;100083.63;7763306;32;37963;-80
2023/08/20 01:34:38;;;;;;;11.38;6.87;;;;;;;23.28;60.20;100092.22;7761535;32;36530;-80
2023/08/20 01:38:54;;;;;;;10.57;6.75;;;;;;;23.43;59.62;100085.91;7763586;32;39259;-80
2023/08/20 01:43:11;;;;;;;9.70;6.45;;;;;;;23.14;60.64;100089.78;7765614;32;40073;-81
2023/08/20 01:47:27;;;;;;;9.30;6.53;;;;;;;23.09;60.94;100087.25;7766694;32;37937;-80
2023/08/20 01:51:44;;;;;;;10.77;6.12;;;;;;;23.10;60.82;100086.09;7766531;32;37711;-80
2023/08/20 01:56:00;;;;;;;9.45;6.45;;;;;;;22.98;61.30;100091.66;7766750;32;39357;-81
2023/08/20 02:00:17;;;;;;;9.07;6.22;;;;;;;23.07;60.95;100092.38;7766512;32;40568;-81
2023/08/20 02:04:33;;;;;;;9.75;6.47;;;;;;;23.07;60.92;100084.03;7766339;32;38030;-81
2023/08/20 02:08:49;;;;;;;9.82;6.43;;;;;;;22.98;61.40;100097.22;7765840;32;36881;-81
2023/08/20 02:13:07;;;;;;;10.10;6.72;;;;;;;22.92;61.51;100098.59;7766292;32;39232;-81
2023/08/20 02:17:25;;;;;;;9.98;6.68;;;;;;;22.97;61.20;100101.13;7766487;32;40039;-81
2023/08/20 02:21:42;;;;;;;10.45;6.72;;;;;;;22.85;61.46;100100.00;7766669;32;38883;-81
2023/08/20 02:25:58;;;;;;;11.65;7.28;;;;;;;22.76;61.74;100102.06;7766392;32;36656;-81
2023/08/20 02:30:15;;;;;;;12.82;6.80;;;;;;;22.88;61.38;100093.72;7766391;32;38913;-81
2023/08/20 02:34:31;;;;;;;10.55;6.65;;;;;;;22.90;61.30;100095.34;7766043;32;40874;-81
2023/08/20 02:38:47;;;;;;;9.80;7.03;;;;;;;22.63;61.90;100094.91;7766028;32;38802;-80
2023/08/20 02:43:04;;;;;;;10.73;6.78;;;;;;;22.74;61.41;100092.47;7766170;32;37694;-80
2023/08/20 02:47:20;;;;;;;11.57;7.05;;;;;;;22.47;61.99;100090.00;7766056;32;39164;-81
2023/08/20 02:51:36;;;;;;;12.48;6.60;;;;;;;22.64;61.32;100088.97;7765982;32;40546;-81
2023/08/20 02:55:53;;;;;;;13.15;7.05;;;;;;;22.49;62.05;100092.41;7765847;32;38789;-81
2023/08/20 03:00:11;;;;;;;12.85;7.10;;;;;;;22.39;62.65;100099.25;7765867;32;36894;-79
2023/08/20 03:04:28;;;;;;;11.48;7.10;;;;;;;22.37;62.39;100101.56;7765392;32;41387;-80
2023/08/20 03:08:45;;;;;;;11.18;7.28;;;;;;;22.33;62.17;100100.59;7765810;32;40127;-80
2023/08/20 03:13:02;;;;;;;13.43;7.80;;;;;;;22.23;62.32;100112.13;7765482;32;37993;-80
2023/08/20 03:17:18;;;;;;;9.55;6.93;;;;;;;22.16;62.57;100107.12;7764716;32;36662;-80
2023/08/20 03:21:35;;;;;;;9.07;6.82;;;;;;;22.26;62.20;100117.81;7765577;32;39971;-80
2023/08/20 03:25:51;;;;;;;9.35;7.07;;;;;;;22.07;63.14;100112.75;7765599;32;40110;-80
2023/08/20 03:30:08;;;;;;;10.70;6.80;;;;;;;22.07;63.10;100104.44;7765518;32;37879;-79
2023/08/20 03:34:24;;;;;;;11.43;7.10;;;;;;;22.10;62.83;100109.31;7765570;32;37126;-80
2023/08/20 03:38:40;;;;;;;11.23;6.87;;;;;;;22.38;62.44;100113.47;7765524;32;39846;-73
2023/08/20 03:42:56;;;;;;;12.32;7.30;;;;;;;22.57;62.02;100115.72;7765169;32;39665;-73
2023/08/20 03:47:13;;;;;;;10.38;6.65;;;;;;;22.78;61.65;100113.62;7765258;32;38060;-71
2023/08/20 03:51:29;;;;;;;11.50;6.97;;;;;;;22.97;60.79;100117.81;7764174;32;37134;-72
2023/08/20 03:55:49;;;;;;;9.02;6.10;;;;;;;23.08;60.15;100105.13;7765169;32;39096;-73
2023/08/20 04:00:08;;;;;;;13.23;7.07;;;;;;;22.99;60.12;100113.53;7763988;32;40887;-73
2023/08/20 04:04:25;;;;;;;14.87;6.72;;;;;;;23.06;59.98;100113.00;7764951;32;38790;-74
2023/08/20 04:08:42;;;;;;;11.35;7.35;;;;;;;23.04;59.93;100118.03;7764984;32;36935;-72
2023/08/20 04:12:59;;;;;;;11.45;6.97;;;;;;;23.02;60.22;100125.94;7764790;32;40064;-74
2023/08/20 04:17:15;;;;;;;13.05;7.35;;;;;;;23.09;59.91;100131.75;7764844;32;40908;-72
2023/08/20 04:21:32;;;;;;;11.23;6.90;;;;;;;23.08;60.00;100129.31;7761126;32;38188;-73
2023/08/20 04:25:48;;;;;;;11.57;7.12;;;;;;;23.01;60.36;100141.00;7763579;32;36873;-72
2023/08/20 04:30:06;;;;;;;14.10;7.87;;;;;;;23.04;60.32;100132.78;7764705;32;39314;-72
2023/08/20 04:34:22;;;;;;;13.60;7.20;;;;;;;23.08;60.39;100130.12;7764512;32;39669;-72
2023/08/20 04:38:38;;;;;;;12.65;7.20;;;;;;;23.09;60.68;100134.53;7764429;32;38468;-83
2023/08/20 04:42:55;;;;;;;11.02;7.15;;;;;;;23.27;60.01;100137.88;7764616;32;37048;-83
2023/08/20 04:47:14;;;;;;;10.93;7.18;;;;;;;23.03;61.01;100144.25;7763277;32;39255;-81
2023/08/20 04:51:30;;;;;;;12.45;7.47;;;;;;;23.04;61.29;100134.72;7763878;32;40580;-81
2023/08/20 04:55:47;;;;;;;12.90;7.28;;;;;;;23.19;60.84;100136.03;7761295;32;38719;-82
2023/08/20 05:00:04;;;;;;;10.90;7.30;;;;;;;23.04;61.57;100131.94;7761433;32;36884;-82
2023/08/20 05:04:20;;;;;;;12.25;6.87;;;;;;;22.98;62.23;100150.03;7761456;32;39744;-82
2023/08/20 05:08:36;;;;;;;13.07;8.30;;;;;;;23.04;62.26;100126.38;7762197;32;40613;-83
2023/08/20 05:12:53;;;;;;;10.23;7.12;;;;;;;23.12;62.31;100136.63;7764403;32;38038;-82
2023/08/20 05:17:09;;;;;;;12.05;7.62;;;;;;;22.94;63.19;100151.88;7767335;32;37001;-83
2023/08/20 05:21:25;;;;;;;12.20;7.03;;;;;;;23.07;62.85;100145.19;7767150;32;39348;-82
2023/08/20 05:25:42;;;;;;;12.90;7.62;;;;;;;23.14;62.78;100141.84;7767020;32;40175;-82
2023/08/20 05:29:58;;;;;;;12.85;7.68;;;;;;;23.17;62.87;100138.38;7766951;32;38004;-83
2023/08/20 05:34:14;;;;;;;11.50;7.75;;;;;;;23.08;63.28;100146.81;7766838;32;37574;-82
2023/08/20 05:38:31;;;;;;;12.95;7.80;;;;;;;23.29;62.50;100145.87;7766959;32;40121;-82
2023/08/20 05:42:47;;;;;;;16.52;8.43;;;;;;;23.30;62.44;100153.06;7766642;32;40858;-82
2023/08/20 05:47:07;;;;;;;10.25;7.68;;;;;;;23.29;62.68;100154.22;7766624;32;38293;-83
2023/08/20 05:51:23;;;;;;;11.10;7.65;;;;;;;23.09;63.41;100155.97;7767030;32;34893;-82
2023/08/20 05:55:40;;;;;;;14.98;8.00;;;;;;;23.19;63.84;100159.09;7766590;32;40038;-82
2023/08/20 05:59:56;;;;;;;13.50;7.65;;;;;;;23.51;62.79;100150.97;7766592;32;40007;-82
2023/08/20 06:04:13;;;;;;;13.75;7.97;;;;;;;23.71;62.33;100151.12;7766392;32;37724;-83
2023/08/20 06:08:29;;;;;;;11.50;8.07;;;;;;;23.79;62.16;100150.19;7766557;32;37777;-83
2023/08/20 06:12:46;;;;;;;10.80;7.72;;;;;;;24.10;61.23;100152.31;7766278;32;39439;-82
2023/08/20 06:17:02;;;;;;;13.05;7.68;;;;;;;24.23;61.05;100144.69;7766324;32;40655;-83
2023/08/20 06:21:18;;;;;;;12.48;7.50;;;;;;;24.27;60.88;100140.06;7766283;32;37572;-83
2023/08/20 06:25:35;;;;;;;10.93;7.80;;;;;;;24.58;59.79;100141.31;7766026;32;37146;-83
2023/08/20 06:29:51;;;;;;;10.85;7.62;;;;;;;24.89;59.13;100142.47;7766450;32;39991;-83
2023/08/20 06:34:07;;;;;;;15.05;7.80;;;;;;;25.12;58.45;100146.22;7766098;32;39945;-82
2023/08/20 06:38:24;;;;;;;11.07;7.22;;;;;;;25.23;58.79;100146.50;7765881;32;38036;-82
2023/08/20 06:42:40;;;;;;;11.25;7.30;;;;;;;25.66;57.80;100152.25;7766044;32;36673;-83
2023/08/20 06:46:57;;;;;;;10.80;6.90;;;;;;;25.90;57.21;100150.38;7766076;32;39239;-83
2023/08/20 06:51:19;;;;;;;11.52;7.47;;;;;;;25.99;57.43;100150.97;7765961;32;41025;-83
2023/08/20 06:55:36;;;;;;;11.68;7.53;;;;;;;26.22;56.76;100159.44;7765806;32;37948;-82
2023/08/20 06:59:52;;;;;;;12.23;7.32;;;;;;;25.56;57.77;100167.59;7766103;32;37128;-83
2023/08/20 07:04:08;;;;;;;12.00;7.75;;;;;;;25.75;58.13;100175.22;7765695;32;38856;-83
2023/08/20 07:08:25;;;;;;;10.82;7.68;;;;;;;25.95;57.85;100173.25;7765769;32;40053;-83
2023/08/20 07:12:41;;;;;;;10.75;7.18;;;;;;;26.03;57.95;100182.59;7765673;32;38049;-83
2023/08/20 07:16:59;;;;;;;12.23;7.72;;;;;;;25.97;55.47;100178.47;7765675;32;37752;-81
2023/08/20 07:21:15;;;;;;;14.30;7.60;;;;;;;26.41;55.67;100180.97;7765725;32;38199;-83
2023/08/20 07:25:32;;;;;;;11.38;7.53;;;;;;;26.70;54.81;100181.50;7765426;32;40852;-82
2023/08/20 07:29:48;;;;;;;11.27;7.07;;;;;;;26.92;54.34;100183.53;7765352;32;37706;-83
2023/08/20 07:34:04;;;;;;;10.48;7.10;;;;;;;27.28;53.63;100178.50;7765245;32;36769;-82
2023/08/20 07:38:21;;;;;;;10.25;6.80;;;;;;;27.37;53.86;100191.44;7763953;32;39317;-81
2023/08/20 07:42:37;;;;;;;11.05;7.30;;;;;;;27.65;52.30;100186.28;7765452;32;40724;-82
2023/08/20 07:46:54;;;;;;;11.35;6.50;;;;;;;27.98;51.85;100187.53;7765271;32;37778;-82
2023/08/20 07:51:10;;;;;;;15.85;7.55;;;;;;;28.35;51.20;100175.56;7765175;32;37863;-83
2023/08/20 07:55:26;;;;;;;11.80;7.15;;;;;;;28.37;50.70;100181.59;7765105;32;38856;-83
2023/08/20 07:59:43;;;;;;;10.35;7.30;;;;;;;28.36;51.46;100174.38;7763844;32;40811;-82
2023/08/20 08:03:59;;;;;;;15.88;7.18;;;;;;;28.71;49.94;100173.16;7764879;32;37838;-83
2023/08/20 08:08:16;;;;;;;12.13;7.62;;;;;;;28.80;50.42;100170.84;7765178;32;37008;-82
2023/08/20 08:12:33;;;;;;;12.55;7.70;;;;;;;28.37;49.91;100170.41;7765069;32;39837;-82
2023/08/20 08:16:50;;;;;;;10.43;7.60;;;;;;;28.23;51.37;100175.81;7764673;32;40836;-82
2023/08/20 08:21:06;;;;;;;11.50;7.93;;;;;;;28.07;52.04;100185.25;7764726;32;37630;-82
2023/08/20 08:25:23;;;;;;;11.63;8.13;;;;;;;27.86;52.54;100194.16;7764651;32;37081;-82
2023/08/20 08:29:39;;;;;;;11.00;7.90;;;;;;;28.02;52.93;100182.78;7764687;32;39162;-82
2023/08/20 08:33:56;;;;;;;10.45;7.32;;;;;;;28.36;51.19;100179.97;7764526;32;39917;-82
2023/08/20 08:38:12;;;;;;;10.05;7.28;;;;;;;28.57;51.92;100181.44;7764383;32;38038;-83
2023/08/20 08:42:28;;;;;;;9.93;7.20;;;;;;;28.78;51.76;100187.25;7764551;32;37662;-82
2023/08/20 08:46:47;;;;;;;12.57;7.72;;;;;;;28.62;51.13;100178.28;7764164;32;39859;-83
2023/08/20 08:51:03;;;;;;;12.30;8.15;;;;;;;28.90;51.34;100174.94;7764948;32;38965;-83
2023/08/20 08:55:20;;;;;;;11.15;7.55;;;;;;;28.45;52.10;100172.06;7763725;32;37898;-82
2023/08/20 08:59:36;;;;;;;12.65;8.20;;;;;;;28.30;51.46;100167.47;7764002;32;37887;-83
2023/08/20 09:03:52;;;;;;;11.88;7.87;;;;;;;28.87;51.65;100164.47;7763699;32;39822;-83
2023/08/20 09:08:08;;;;;;;9.13;7.07;;;;;;;29.49;51.41;100166.56;7764007;32;39665;-84
2023/08/20 09:12:25;;;;;;;12.60;7.85;;;;;;;29.96;49.40;100170.47;7763610;32;38053;-83
2023/08/20 09:16:41;;;;;;;10.90;7.70;;;;;;;30.03;47.99;100163.25;7763273;32;37741;-84
2023/08/20 09:20:59;;;;;;;15.63;7.93;;;;;;;30.24;48.78;100168.94;7763442;32;39351;-83
2023/08/20 09:25:17;;;;;;;11.05;7.28;;;;;;;30.11;48.21;100164.88;7763197;32;39901;-83
2023/08/20 09:29:43;;;;;;;10.93;7.68;;;;;;;30.52;47.33;100167.44;7763143;32;38009;-83
2023/08/20 09:33:59;;;;;;;10.70;7.65;;;;;;;29.81;48.28;100162.37;7761827;32;37045;-84
2023/08/20 09:38:18;;;;;;;14.98;7.70;;;;;;;30.58;46.62;100160.22;7762876;32;39279;-83
2023/08/20 09:42:34;;;;;;;9.85;7.22;;;;;;;30.25;48.40;100162.13;7762938;32;39860;-84
2023/08/20 09:46:51;;;;;;;11.60;8.02;;;;;;;30.32;46.42;100153.72;7762729;32;38174;-83
2023/08/20 09:51:11;;;;;;;13.82;6.95;;;;;;;30.29;45.99;100165.75;7762465;32;37927;-83
2023/08/20 09:55:36;;;;;;;13.00;7.30;;;;;;;30.95;44.29;100153.44;7762225;32;39428;-83
2023/08/20 09:59:53;;;;;;;11.32;7.28;;;;;;;31.15;43.49;100155.81;7763134;32;40608;-83
2023/08/20 10:04:10;;;;;;;8.63;6.75;;;;;;;30.84;44.93;100158.25;7764978;32;38075;-83
2023/08/20 10:08:27;;;;;;;11.93;6.70;;;;;;;30.98;45.96;100154.66;7765147;32;37777;-83
2023/08/20 10:12:48;;;;;;;10.65;7.55;;;;;;;31.99;43.96;100149.59;7766403;32;39190;-84
2023/08/20 10:17:11;;;;;;;9.95;6.78;;;;;;;31.72;43.62;100143.66;7766194;32;40781;-84
2023/08/20 10:21:28;;;;;;;9.68;7.22;;;;;;;31.72;42.58;100150.13;7764778;32;38719;-83
2023/08/20 10:25:46;;;;;;;13.38;7.85;;;;;;;31.48;42.56;100145.31;7766303;32;36965;-84
2023/08/20 10:30:07;;;;;;;10.95;7.55;;;;;;;31.56;43.19;100147.75;7766338;32;39283;-83
2023/08/20 10:34:35;;;;;;;8.87;6.47;;;;;;;31.99;43.68;100141.13;7766109;32;40794;-82
2023/08/20 10:38:55;;;;;;;13.73;6.78;;;;;;;32.47;41.26;100131.22;7766207;32;38868;-84
2023/08/20 10:43:23;;;;;;;11.52;6.82;;;;;;;32.96;38.99;100136.91;7766057;32;36990;-83
2023/08/20 10:47:43;;;;;;;10.82;6.97;;;;;;;33.20;38.40;100133.09;7766071;32;39103;-85
2023/08/20 10:52:02;;;;;;;9.63;6.43;;;;;;;32.77;40.29;100129.81;7765975;32;40161;-84
2023/08/20 10:56:18;;;;;;;11.30;7.25;;;;;;;33.55;39.24;100119.78;7764455;32;39724;-84
2023/08/20 11:00:35;;;;;;;11.43;7.00;;;;;;;33.34;38.05;100115.19;7765494;32;36843;-84
2023/08/20 11:04:51;;;;;;;10.77;6.75;;;;;;;33.25;39.31;100117.69;7765672;32;39307;-83
2023/08/20 11:09:08;;;;;;;12.68;6.37;;;;;;;33.55;37.68;100111.31;7765558;32;40970;-83
2023/08/20 11:13:26;;;;;;;9.48;6.00;;;;;;;33.66;37.39;100106.31;7765587;32;38750;-84
2023/08/20 11:17:46;;;;;;;8.38;6.32;;;;;;;33.53;36.64;100105.28;7764590;32;35824;-84
2023/08/20 11:22:06;;;;;;;7.60;5.72;;;;;;;33.86;35.89;100105.72;7765623;32;39316;-83
2023/08/20 11:26:23;;;;;;;8.93;5.93;;;;;;;33.41;36.64;100102.97;7765513;32;39591;-83
2023/08/20 11:30:39;;;;;;;10.02;5.60;;;;;;;33.95;36.63;100096.72;7765467;32;38855;-84
2023/08/20 11:34:55;;;;;;;10.85;5.80;;;;;;;34.26;35.73;100094.66;7765095;32;37765;-83
2023/08/20 11:39:12;;;;;;;10.00;5.85;;;;;;;34.83;33.17;100086.50;7764083;32;40083;-83
2023/08/20 11:43:29;;;;;;;8.50;5.43;;;;;;;34.63;32.02;100081.53;7765404;32;40804;-84
2023/08/20 11:47:45;;;;;;;9.02;5.57;;;;;;;34.40;33.31;100082.34;7765095;32;37957;-82
2023/08/20 11:52:01;;;;;;;9.07;5.20;;;;;;;34.61;33.29;100072.69;7765208;32;36928;-83
2023/08/20 11:56:18;;;;;;;6.85;4.70;;;;;;;35.13;33.00;100077.87;7765034;32;40025;-83
2023/08/20 12:00:34;;;;;;;9.00;5.05;;;;;;;34.70;32.29;100081.41;7764968;32;39430;-82
2023/08/20 12:04:51;;;;;;;11.68;5.80;;;;;;;34.93;31.09;100074.19;7765008;32;38919;-83
2023/08/20 12:09:23;;;;;;;7.80;4.78;;;;;;;34.95;31.47;100077.37;7764880;32;37975;-83
2023/08/20 12:13:39;;;;;;;8.68;5.12;;;;;;;35.23;30.77;100076.06;7764615;32;39271;-82
2023/08/20 12:17:57;;;;;;;7.35;5.05;;;;;;;34.90;31.25;100072.22;7764443;32;39877;-84
2023/08/20 12:22:13;;;;;;;9.30;4.40;;;;;;;34.95;29.46;100072.50;7763096;32;37984;-84
2023/08/20 12:26:30;;;;;;;7.32;4.78;;;;;;;35.15;29.82;100075.38;7764235;32;37770;-81
2023/08/20 12:30:46;;;;;;;8.65;4.43;;;;;;;35.31;28.62;100066.19;7764345;32;40107;-81
2023/08/20 12:35:02;;;;;;;9.82;4.93;;;;;;;35.26;28.59;100068.75;7764556;32;40569;-82
2023/08/20 12:39:19;;;;;;;8.70;4.32;;;;;;;35.11;28.45;100068.97;7764271;32;38754;-82
2023/08/20 12:43:35;;;;;;;8.75;5.15;;;;;;;35.58;28.26;100058.78;7763214;32;37135;-83
2023/08/20 12:47:51;;;;;;;7.82;4.57;;;;;;;35.11;29.62;100062.53;7754879;32;39178;-83
2023/08/20 12:52:08;;;;;;;8.27;5.10;;;;;;;36.02;29.09;100053.78;7773946;32;41001;-84
2023/08/20 12:56:24;;;;;;;7.45;4.62;;;;;;;36.39;28.47;100055.34;7791136;32;37774;-83
2023/08/20 13:00:40;;;;;;;8.95;4.93;;;;;;;35.58;28.32;100050.28;7777063;32;36625;-84
2023/08/20 13:04:58;;;;;;;9.45;5.18;;;;;;;35.61;29.21;100055.06;7761193;32;39290;-85
2023/08/20 13:09:17;;;;;;;7.97;5.22;;;;;;;35.95;29.45;100042.62;7761900;32;39653;-85
2023/08/20 13:13:34;;;;;;;7.32;5.15;;;;;;;36.15;28.02;100040.47;7763247;32;37943;-83
2023/08/20 13:17:51;;;;;;;8.82;5.10;;;;;;;36.05;29.12;100039.53;7749992;32;37782;-83
2023/08/20 13:22:07;;;;;;;8.27;4.60;;;;;;;36.34;28.07;100038.03;7736613;32;39269;-82
2023/08/20 13:26:24;;;;;;;5.70;4.55;;;;;;;36.04;29.57;100020.88;7736340;32;40844;-83
2023/08/20 13:30:40;;;;;;;10.13;5.45;;;;;;;36.17;28.21;100028.69;7753885;32;38034;-83
2023/08/20 13:34:56;;;;;;;7.87;5.32;;;;;;;36.25;28.72;100030.16;7762929;32;38028;-83
2023/08/20 13:39:18;;;;;;;8.05;5.32;;;;;;;36.98;30.45;100013.69;7765864;32;39273;-83
2023/08/20 13:43:34;;;;;;;8.45;5.12;;;;;;;36.83;29.01;100018.16;7766204;32;40867;-83
2023/08/20 13:47:50;;;;;;;8.10;5.05;;;;;;;36.10;29.24;100018.34;7751152;32;38743;-83
2023/08/20 13:52:06;;;;;;;8.10;5.45;;;;;;;36.06;30.50;100015.56;7759602;32;37436;-85
2023/08/20 13:56:24;;;;;;;9.27;4.97;;;;;;;36.86;28.80;100005.91;7766110;32;39355;-83
2023/08/20 14:00:41;;;;;;;8.18;5.15;;;;;;;36.81;28.71;99997.94;7765471;32;39518;-84
2023/08/20 14:04:57;;;;;;;10.25;5.22;;;;;;;36.60;29.71;99994.41;7749908;32;38882;-83
2023/08/20 14:09:13;;;;;;;7.93;5.37;;;;;;;35.95;30.31;100008.56;7757188;32;36993;-83
2023/08/20 14:13:30;;;;;;;8.55;5.65;;;;;;;35.90;30.87;100007.06;7765642;32;40010;-82
2023/08/20 14:17:47;;;;;;;9.25;5.53;;;;;;;35.60;31.44;99993.94;7764606;32;39943;-83
2023/08/20 14:22:03;;;;;;;11.02;6.00;;;;;;;35.75;31.30;99997.28;7764911;32;37923;-81
2023/08/20 14:26:19;;;;;;;7.22;5.20;;;;;;;36.09;31.11;99989.16;7765051;32;37665;-83
2023/08/20 14:30:39;;;;;;;8.90;5.75;;;;;;;36.26;31.08;99981.47;7763168;32;40809;-83
2023/08/20 14:34:55;;;;;;;9.75;5.37;;;;;;;36.61;29.58;99990.28;7764921;32;39948;-83
2023/08/20 14:39:12;;;;;;;8.00;5.40;;;;;;;36.62;29.54;99986.22;7764978;32;38063;-84
2023/08/20 14:43:29;;;;;;;8.35;4.97;;;;;;;36.01;30.71;99992.59;7765101;32;36534;-84
2023/08/20 14:47:45;;;;;;;7.05;5.03;;;;;;;36.44;30.35;99983.06;7765137;32;39441;-83
2023/08/20 14:52:02;;;;;;;7.32;5.15;;;;;;;36.31;29.08;99988.66;7765814;32;39937;-83
2023/08/20 14:56:34;;;;;;;10.50;4.95;;;;;;;36.49;29.90;99982.50;7756367;32;38433;-84
2023/08/20 15:00:51;;;;;;;7.37;5.20;;;;;;;36.18;29.39;99985.69;7759908;32;37197;-84
2023/08/20 15:05:07;;;;;;;9.10;5.72;;;;;;;36.77;29.59;99975.31;7739164;32;39244;-84
2023/08/20 15:09:24;;;;;;;12.27;5.47;;;;;;;36.45;30.34;99981.81;7738771;32;40051;-83
2023/08/20 15:13:40;;;;;;;10.05;6.00;;;;;;;35.83;30.93;99985.31;7747183;32;37587;-84
2023/08/20 15:17:57;;;;;;;9.20;5.72;;;;;;;35.88;30.35;99984.00;7751392;32;36808;-85
2023/08/20 15:22:14;;;;;;;9.20;5.43;;;;;;;35.59;31.31;99986.69;7765707;32;39343;-86
2023/08/20 15:26:31;;;;;;;8.80;5.35;;;;;;;35.21;31.63;99981.41;7765186;32;39799;-86
2023/08/20 15:30:50;;;;;;;9.93;4.80;;;;;;;35.46;31.45;99987.34;7765229;32;37932;-85
2023/08/20 15:35:07;;;;;;;7.95;5.45;;;;;;;35.72;30.03;99981.94;7765691;32;37631;-85
2023/08/20 15:39:23;;;;;;;6.18;4.43;;;;;;;35.26;31.43;99980.91;7765494;32;40148;-85
2023/08/20 15:43:39;;;;;;;9.20;4.72;;;;;;;35.61;30.08;99981.38;7765291;32;39901;-85
2023/08/20 15:47:56;;;;;;;6.82;4.80;;;;;;;36.15;29.26;99968.75;7764794;32;38763;-82
2023/08/20 15:52:12;;;;;;;6.72;4.75;;;;;;;36.26;28.86;99970.13;7782805;32;37545;-81
2023/08/20 15:56:29;;;;;;;6.80;4.30;;;;;;;35.93;29.04;99980.66;7763760;32;38973;-81
2023/08/20 16:00:45;;;;;;;7.65;4.45;;;;;;;35.74;28.89;99970.97;7767313;32;40044;-82
2023/08/20 16:05:02;;;;;;;11.50;4.05;;;;;;;36.03;28.70;99973.09;7766678;32;38580;-83
2023/08/20 16:09:23;;;;;;;9.10;4.40;;;;;;;36.33;29.23;99963.47;7746943;32;36693;-85
2023/08/20 16:13:57;;;;;;;8.75;4.22;;;;;;;36.20;29.28;99973.91;7788659;32;39201;-84
2023/08/20 16:18:14;;;;;;;7.10;4.40;;;;;;;35.97;29.06;99974.88;7791726;32;38800;-85
2023/08/20 16:22:31;;;;;;;9.85;4.90;;;;;;;35.78;30.17;99976.56;7789444;32;37469;-85
2023/08/20 16:26:48;;;;;;;9.60;4.97;;;;;;;35.35;32.33;99978.28;7764672;32;36627;-84
2023/08/20 16:31:06;;;;;;;9.48;4.72;;;;;;;35.51;30.76;99981.16;7764635;32;39350;-84
2023/08/20 16:35:23;;;;;;;7.03;4.53;;;;;;;34.88;32.31;99987.69;7764486;32;39794;-84
2023/08/20 16:39:39;;;;;;;9.88;5.18;;;;;;;34.74;32.58;99988.78;7765688;32;38679;-87
2023/08/20 16:43:56;;;;;;;9.93;5.00;;;;;;;34.96;33.16;99985.50;7780185;32;36985;-85
2023/08/20 16:48:12;;;;;;;12.90;5.62;;;;;;;34.58;32.34;99995.09;7776393;32;38990;-82
2023/08/20 16:52:29;;;;;;;13.55;5.15;;;;;;;34.39;34.04;99990.16;7764033;32;40781;-81
2023/08/20 16:56:45;;;;;;;12.15;5.03;;;;;;;34.70;33.61;99990.81;7764340;32;38061;-80
2023/08/20 17:01:04;;;;;;;8.90;5.53;;;;;;;35.25;32.67;99987.81;7782964;32;36985;-80
2023/08/20 17:05:20;;;;;;;6.20;4.65;;;;;;;35.50;31.84;99987.28;7789679;32;39153;-80
2023/08/20 17:09:37;;;;;;;10.73;5.20;;;;;;;35.88;31.82;99992.53;7784995;32;39986;-81
2023/08/20 17:13:54;;;;;;;9.02;4.80;;;;;;;37.07;29.44;99983.78;7773809;32;37785;-80
2023/08/20 17:18:11;;;;;;;10.98;5.25;;;;;;;38.39;27.50;99981.75;7767007;32;37052;-81
2023/08/20 17:22:27;;;;;;;7.55;5.12;;;;;;;38.20;27.80;99982.84;7765801;32;39146;-80
2023/08/20 17:26:44;;;;;;;6.55;4.65;;;;;;;37.27;28.68;99989.34;7759847;32;40945;-80
2023/08/20 17:31:03;;;;;;;8.70;4.75;;;;;;;36.97;29.60;99985.72;7740437;32;37991;-79
2023/08/20 17:35:19;;;;;;;8.38;5.32;;;;;;;36.58;30.19;99984.72;7739717;32;36953;-80
2023/08/20 17:39:36;;;;;;;9.77;5.07;;;;;;;35.94;31.86;99998.47;7739637;32;39264;-79
2023/08/20 17:43:52;;;;;;;18.00;5.78;;;;;;;35.25;32.75;99999.94;7742165;32;39995;-82
2023/08/20 17:48:08;;;;;;;9.32;5.03;;;;;;;34.55;34.56;99995.16;7765099;32;38954;-82
2023/08/20 17:52:26;;;;;;;8.45;5.32;;;;;;;34.04;34.39;99995.97;7746583;32;37055;-83
2023/08/20 17:56:44;;;;;;;9.75;5.55;;;;;;;33.60;36.02;100003.47;7761164;32;40048;-83
2023/08/20 18:01:03;;;;;;;11.52;6.37;;;;;;;33.38;36.79;100002.94;7779865;32;40074;-84
2023/08/20 18:05:20;;;;;;;15.35;8.82;;;;;;;32.94;37.96;100004.62;7742969;32;38067;-83
2023/08/20 18:09:40;;;;;;;13.73;8.18;;;;;;;32.64;38.61;100005.34;7739596;32;37051;-82
2023/08/20 18:13:57;;;;;;;13.68;8.27;;;;;;;32.21;39.82;100011.34;7769716;32;38506;-82
2023/08/20 18:18:14;;;;;;;10.77;6.55;;;;;;;32.07;40.03;100029.97;7771835;32;39909;-81
2023/08/20 18:22:30;;;;;;;8.95;6.00;;;;;;;31.67;41.03;100023.72;7765435;32;38052;-80
2023/08/20 18:26:46;;;;;;;10.07;6.22;;;;;;;31.52;41.76;100027.81;7766265;32;36798;-80
2023/08/20 18:31:03;;;;;;;10.77;6.37;;;;;;;31.35;41.92;100035.09;7766214;32;39294;-80
2023/08/20 18:35:23;;;;;;;11.80;6.68;;;;;;;31.05;42.79;100044.84;7758850;32;39964;-80
2023/08/20 18:39:41;;;;;;;10.63;6.18;;;;;;;30.83;43.56;100058.13;7765055;32;37772;-80
2023/08/20 18:44:02;;;;;;;10.77;7.28;;;;;;;30.54;43.87;100063.75;7765644;32;37922;-79
2023/08/20 18:48:23;;;;;;;13.38;7.95;;;;;;;30.48;44.25;100082.25;7763092;32;37796;-79
2023/08/20 18:52:46;;;;;;;15.52;9.02;;;;;;;30.25;45.02;100071.34;7765700;32;40746;-79
2023/08/20 18:57:12;;;;;;;10.82;7.10;;;;;;;30.15;45.30;100072.94;7761856;32;38475;-79
2023/08/20 19:01:34;;;;;;;9.43;6.43;;;;;;;30.01;45.41;100078.53;7750434;32;36584;-80
2023/08/20 19:06:03;;;;;;;15.30;6.93;;;;;;;29.67;46.25;100084.41;7750561;32;39342;-80
2023/08/20 19:10:28;;;;;;;9.80;6.57;;;;;;;29.57;46.75;100092.38;7750499;32;39940;-80
2023/08/20 19:14:47;;;;;;;11.57;7.65;;;;;;;29.45;46.94;100092.72;7759461;32;38687;-80
2023/08/20 19:19:04;;;;;;;11.00;6.78;;;;;;;29.42;46.40;100093.50;7764699;32;37782;-80
2023/08/20 19:23:21;;;;;;;12.10;6.72;;;;;;;29.23;46.78;100094.59;7765003;32;37880;-80
2023/08/20 19:27:38;;;;;;;12.37;6.97;;;;;;;29.05;47.38;100096.47;7764420;32;40044;-80
2023/08/20 19:31:55;;;;;;;10.13;6.97;;;;;;;28.95;47.80;100098.00;7764062;32;38869;-79
2023/08/20 19:36:13;;;;;;;12.32;7.10;;;;;;;28.78;48.46;100105.88;7764382;32;37224;-80
2023/08/20 19:40:35;;;;;;;15.23;7.82;;;;;;;28.84;47.56;100112.75;7764459;32;41102;-79
2023/08/20 19:44:52;;;;;;;10.80;6.47;;;;;;;28.56;48.75;100115.31;7763804;32;40737;-78
2023/08/20 19:49:10;;;;;;;11.75;7.10;;;;;;;28.39;49.23;100123.16;7764374;32;38107;-78
2023/08/20 19:53:28;;;;;;;10.57;6.65;;;;;;;28.36;48.75;100123.13;7765154;32;37148;-78